createdAt,value
2022-11-29T00:02:25.295Z,35.10
2022-11-29T00:04:58.456Z,24.70
2022-11-29T00:07:29.092Z,33.50
2022-11-29T00:10:00.442Z,26.35
2022-11-29T00:12:31.149Z,25.30
2022-11-29T00:15:01.369Z,24.65
2022-11-29T00:17:31.934Z,22.02
2022-11-29T00:20:02.879Z,23.63
2022-11-29T00:22:33.369Z,32.15
2022-11-29T00:25:04.295Z,26.58
2022-11-29T00:27:35.015Z,27.50
2022-11-29T00:30:06.019Z,27.80
2022-11-29T00:32:37.381Z,31.10
2022-11-29T00:35:13.324Z,35.83
2022-11-29T00:37:43.889Z,33.30
2022-11-29T00:40:14.514Z,32.88
2022-11-29T00:42:48.245Z,36.20
2022-11-29T00:45:18.765Z,30.10
2022-11-29T00:47:49.327Z,27.05
2022-11-29T00:50:28.930Z,30.35
2022-11-29T00:52:59.457Z,29.48
2022-11-29T00:55:30.396Z,35.33
2022-11-29T00:58:00.992Z,32.75
2022-11-29T01:00:31.759Z,32.00
2022-11-29T01:03:03.352Z,31.23
2022-11-29T01:05:34.688Z,26.73
2022-11-29T01:08:06.063Z,29.30
2022-11-29T01:10:36.670Z,25.48
2022-11-29T01:13:07.661Z,25.88
2022-11-29T01:15:38.427Z,25.27
2022-11-29T01:18:09.494Z,22.95
2022-11-29T01:20:39.909Z,23.40
2022-11-29T01:23:10.446Z,16.60
2022-11-29T01:25:40.891Z,16.27
2022-11-29T01:28:11.425Z,12.05
2022-11-29T01:30:41.913Z,16.80
2022-11-29T01:33:12.719Z,13.70
2022-11-29T01:35:52.090Z,17.25
2022-11-29T01:38:25.435Z,13.80
2022-11-29T01:41:05.107Z,20.23
2022-11-29T01:43:52.314Z,20.77
2022-11-29T01:46:25.293Z,25.23
2022-11-29T01:48:58.524Z,19.70
2022-11-29T01:51:30.108Z,16.40
2022-11-29T01:54:03.013Z,18.50
2022-11-29T01:56:35.028Z,22.42
2022-11-29T01:59:09.394Z,20.30
2022-11-29T02:01:40.538Z,21.60
2022-11-29T02:04:12.164Z,21.75
2022-11-29T02:06:43.131Z,16.70
2022-11-29T02:09:21.643Z,22.13
2022-11-29T02:12:03.880Z,22.45
2022-11-29T02:15:09.013Z,16.60
2022-11-29T02:17:55.780Z,19.05
2022-11-29T02:21:02.441Z,14.50
2022-11-29T02:24:05.591Z,18.50
2022-11-29T02:26:57.363Z,25.75
2022-11-29T02:30:01.317Z,19.25
2022-11-29T02:32:50.014Z,23.67
2022-11-29T02:35:53.908Z,30.05
2022-11-29T02:38:24.242Z,18.38
2022-11-29T02:41:07.287Z,17.38
2022-11-29T02:44:14.083Z,20.75
2022-11-29T02:46:51.456Z,16.48
2022-11-29T02:49:39.899Z,19.15
2022-11-29T02:52:34.231Z,17.42
2022-11-29T02:55:49.507Z,15.23
2022-11-29T02:58:37.607Z,17.00
2022-11-29T03:01:23.101Z,16.25
2022-11-29T03:03:56.450Z,18.48
2022-11-29T03:06:55.615Z,23.58
2022-11-29T03:09:32.255Z,13.60
2022-11-29T03:12:05.606Z,21.40
2022-11-29T03:15:03.468Z,15.55
2022-11-29T03:18:24.771Z,15.13
2022-11-29T03:21:20.701Z,13.93
2022-11-29T03:23:58.908Z,14.98
2022-11-29T03:27:00.517Z,16.13
2022-11-29T03:29:55.681Z,15.48
2022-11-29T03:32:42.012Z,11.93
2022-11-29T03:35:57.118Z,13.20
2022-11-29T03:38:46.936Z,14.80
2022-11-29T03:41:19.973Z,12.20
2022-11-29T03:44:28.067Z,13.40
2022-11-29T03:47:06.292Z,12.45
2022-11-29T03:50:12.002Z,17.98
2022-11-29T03:52:54.032Z,17.08
2022-11-29T03:56:11.369Z,24.10
2022-11-29T03:58:51.514Z,18.08
2022-11-29T04:01:43.867Z,12.95
2022-11-29T04:04:27.014Z,12.93
2022-11-29T04:07:12.594Z,8.70
2022-11-29T04:10:05.623Z,18.35
2022-11-29T04:13:10.602Z,13.32
2022-11-29T04:16:08.542Z,11.45
2022-11-29T04:18:58.671Z,16.70
2022-11-29T04:21:35.577Z,13.25
2022-11-29T04:24:27.759Z,10.63
2022-11-29T04:27:12.862Z,13.05
2022-11-29T04:29:52.359Z,11.55
2022-11-29T04:32:44.017Z,9.65
2022-11-29T04:35:20.442Z,12.25
2022-11-29T04:38:02.450Z,10.07
2022-11-29T04:40:44.246Z,13.27
2022-11-29T04:43:41.252Z,10.77
2022-11-29T04:46:21.432Z,14.77
2022-11-29T04:48:54.457Z,14.32
2022-11-29T04:51:33.386Z,12.95
2022-11-29T04:54:12.559Z,9.13
2022-11-29T04:56:45.195Z,13.48
2022-11-29T04:59:54.041Z,11.38
2022-11-29T05:02:34.202Z,12.80
2022-11-29T05:05:29.241Z,10.23
2022-11-29T05:08:26.516Z,14.75
2022-11-29T05:11:26.344Z,18.80
2022-11-29T05:14:00.678Z,13.82
2022-11-29T05:16:49.762Z,13.23
2022-11-29T05:19:35.236Z,15.85
2022-11-29T05:22:26.568Z,14.13
2022-11-29T05:25:02.172Z,12.30
2022-11-29T05:28:04.469Z,10.93
2022-11-29T05:31:06.114Z,11.15
2022-11-29T05:34:13.311Z,9.43
2022-11-29T05:37:10.424Z,16.95
2022-11-29T05:39:59.666Z,11.70
2022-11-29T05:42:40.522Z,21.27
2022-11-29T05:45:25.082Z,13.95
2022-11-29T05:48:26.622Z,24.98
2022-11-29T05:51:07.291Z,13.32
2022-11-29T05:53:48.953Z,17.55
2022-11-29T05:56:49.453Z,20.52
2022-11-29T05:59:26.001Z,12.55
2022-11-29T06:02:30.682Z,13.38
2022-11-29T06:05:32.620Z,13.90
2022-11-29T06:08:35.221Z,10.43
2022-11-29T06:11:28.640Z,19.27
2022-11-29T06:14:21.821Z,10.80
2022-11-29T06:16:53.013Z,14.68
2022-11-29T06:19:54.045Z,12.40
2022-11-29T06:22:35.258Z,13.32
2022-11-29T06:26:03.688Z,22.27
2022-11-29T06:28:56.808Z,13.52
2022-11-29T06:31:34.813Z,13.07
2022-11-29T06:34:11.362Z,11.23
2022-11-29T06:37:04.205Z,15.45
2022-11-29T06:39:35.957Z,12.27
2022-11-29T06:42:06.863Z,16.58
2022-11-29T06:44:37.939Z,16.75
2022-11-29T06:47:32.384Z,21.20
2022-11-29T06:50:26.124Z,21.95
2022-11-29T06:53:17.494Z,17.55
2022-11-29T06:56:00.019Z,17.83
2022-11-29T06:58:36.383Z,17.77
2022-11-29T07:01:28.591Z,10.85
2022-11-29T07:04:52.610Z,17.90
2022-11-29T07:07:25.236Z,19.42
2022-11-29T07:10:00.472Z,21.55
2022-11-29T07:12:31.683Z,18.17
2022-11-29T07:15:02.571Z,19.73
2022-11-29T07:17:41.044Z,14.18
2022-11-29T07:20:23.680Z,22.00
2022-11-29T07:23:15.303Z,14.35
2022-11-29T07:25:51.192Z,16.90
2022-11-29T07:28:27.695Z,12.35
2022-11-29T07:31:31.783Z,17.38
2022-11-29T07:34:19.977Z,24.85
2022-11-29T07:37:12.616Z,22.08
2022-11-29T07:40:04.933Z,19.58
2022-11-29T07:42:45.258Z,22.23
2022-11-29T07:45:27.731Z,17.50
2022-11-29T07:47:58.212Z,17.98
2022-11-29T07:50:29.417Z,18.15
2022-11-29T07:53:01.071Z,19.80
2022-11-29T07:55:33.368Z,19.30
2022-11-29T07:58:06.737Z,16.25
2022-11-29T08:00:37.413Z,13.82
2022-11-29T08:03:07.782Z,17.88
2022-11-29T08:05:39.602Z,18.08
2022-11-29T08:08:10.733Z,16.58
2022-11-29T08:10:42.060Z,17.75
2022-11-29T08:13:12.819Z,16.48
2022-11-29T08:15:46.852Z,14.43
2022-11-29T08:18:17.794Z,12.93
2022-11-29T08:20:48.876Z,12.30
2022-11-29T08:23:19.145Z,10.05
2022-11-29T08:25:50.338Z,9.18
2022-11-29T08:28:20.632Z,7.65
2022-11-29T08:30:51.193Z,7.38
2022-11-29T08:33:21.455Z,14.05
2022-11-29T08:35:51.963Z,11.40
2022-11-29T08:38:25.054Z,15.43
2022-11-29T08:40:57.931Z,21.00
2022-11-29T08:43:29.186Z,32.38
2022-11-29T08:46:00.949Z,16.48
2022-11-29T08:48:31.869Z,19.48
2022-11-29T08:51:02.871Z,19.50
2022-11-29T08:53:42.572Z,18.90
2022-11-29T08:57:04.534Z,27.27
2022-11-29T08:59:07.569Z,23.13
2022-11-29T09:01:37.949Z,19.60
2022-11-29T09:04:11.591Z,21.27
2022-11-29T09:06:46.367Z,21.60
2022-11-29T09:09:17.420Z,17.65
2022-11-29T09:11:49.562Z,21.55
2022-11-29T09:14:23.168Z,23.63
2022-11-29T09:16:53.992Z,22.20
2022-11-29T09:19:28.378Z,29.73
2022-11-29T09:22:02.298Z,25.10
2022-11-29T09:24:35.286Z,12.85
2022-11-29T09:27:05.602Z,12.50
2022-11-29T09:29:36.209Z,10.85
2022-11-29T09:32:07.698Z,19.50
2022-11-29T09:34:38.448Z,9.88
2022-11-29T09:37:08.962Z,13.57
2022-11-29T09:39:41.188Z,10.10
2022-11-29T09:42:32.656Z,10.65
2022-11-29T09:45:03.263Z,13.60
2022-11-29T09:47:40.670Z,18.23
2022-11-29T09:50:44.144Z,9.65
2022-11-29T09:53:48.455Z,14.75
2022-11-29T09:56:46.141Z,13.52
2022-11-29T09:59:43.760Z,12.00
2022-11-29T10:02:35.489Z,14.07
2022-11-29T10:05:50.705Z,13.57
2022-11-29T10:08:34.923Z,8.82
2022-11-29T10:11:18.888Z,14.10
2022-11-29T10:13:55.180Z,18.88
2022-11-29T10:16:34.796Z,15.40
2022-11-29T10:19:44.470Z,25.10
2022-11-29T10:22:14.869Z,42.65
2022-11-29T10:24:48.657Z,29.30
2022-11-29T10:27:22.163Z,22.58
2022-11-29T10:29:53.548Z,14.18
2022-11-29T10:32:25.809Z,27.45
2022-11-29T10:34:58.505Z,15.60
2022-11-29T10:37:33.657Z,23.55
2022-11-29T10:40:09.032Z,19.35
2022-11-29T10:42:55.087Z,20.67
2022-11-29T10:45:31.605Z,26.85
2022-11-29T10:48:12.026Z,24.65
2022-11-29T10:50:45.051Z,38.38
2022-11-29T10:53:25.137Z,27.27
2022-11-29T10:56:07.254Z,32.00
2022-11-29T10:58:38.431Z,41.20
2022-11-29T11:01:10.213Z,44.42
2022-11-29T11:03:43.109Z,38.58
2022-11-29T11:06:19.973Z,40.17
2022-11-29T11:08:56.919Z,32.15
2022-11-29T11:11:33.533Z,28.45
2022-11-29T11:14:28.633Z,42.78
2022-11-29T11:17:27.158Z,41.78
2022-11-29T11:20:06.623Z,35.92
2022-11-29T11:22:40.783Z,34.20
2022-11-29T11:25:29.835Z,38.05
2022-11-29T11:28:14.692Z,39.60
2022-11-29T11:30:59.052Z,35.97
2022-11-29T11:33:32.252Z,33.88
2022-11-29T11:36:10.799Z,34.83
2022-11-29T11:39:13.053Z,26.60
2022-11-29T11:42:02.541Z,29.95
2022-11-29T11:44:49.216Z,31.17
2022-11-29T11:47:28.260Z,28.70
2022-11-29T11:50:13.557Z,33.63
2022-11-29T11:52:54.163Z,34.80
2022-11-29T11:55:38.318Z,34.92
2022-11-29T11:58:14.806Z,40.47
2022-11-29T12:01:07.587Z,51.95
2022-11-29T12:04:01.037Z,49.13
2022-11-29T12:06:31.355Z,43.38
2022-11-29T12:09:27.690Z,37.13
2022-11-29T12:12:21.969Z,36.35
2022-11-29T12:14:57.598Z,39.95
2022-11-29T12:17:39.494Z,37.00
2022-11-29T12:20:29.511Z,37.85
2022-11-29T12:23:16.068Z,40.08
2022-11-29T12:26:07.202Z,33.08
2022-11-29T12:28:41.780Z,31.33
2022-11-29T12:31:18.346Z,34.88
2022-11-29T12:34:15.776Z,33.50
2022-11-29T12:37:11.340Z,31.70
2022-11-29T12:39:59.550Z,30.92
2022-11-29T12:43:01.031Z,28.30
2022-11-29T12:45:36.832Z,39.17
2022-11-29T12:48:44.078Z,41.30
2022-11-29T12:51:37.079Z,26.23
2022-11-29T12:54:21.800Z,30.00
2022-11-29T12:57:44.210Z,33.08
2022-11-29T13:00:20.398Z,38.08
2022-11-29T13:02:51.221Z,31.02
2022-11-29T13:05:44.767Z,41.03
2022-11-29T13:08:34.709Z,36.70
2022-11-29T13:11:10.593Z,33.92
2022-11-29T13:14:03.808Z,36.13
2022-11-29T13:17:06.846Z,35.60
2022-11-29T13:19:46.136Z,40.92
2022-11-29T13:22:29.445Z,36.55
2022-11-29T13:25:05.578Z,40.08
2022-11-29T13:27:42.050Z,34.60
2022-11-29T13:30:16.694Z,36.58
2022-11-29T13:32:52.914Z,32.65
2022-11-29T13:35:35.836Z,27.23
2022-11-29T13:38:35.514Z,33.33
2022-11-29T13:41:28.958Z,31.58
2022-11-29T13:44:26.536Z,34.67
2022-11-29T13:47:10.674Z,30.25
2022-11-29T13:50:03.398Z,27.20
2022-11-29T13:52:43.395Z,21.25
2022-11-29T13:55:29.542Z,25.63
2022-11-29T13:58:20.936Z,28.20
2022-11-29T14:00:53.180Z,29.58
2022-11-29T14:03:31.033Z,25.23
2022-11-29T14:06:13.692Z,25.05
2022-11-29T14:11:44.900Z,35.45
2022-11-29T14:14:18.039Z,27.85
2022-11-29T14:16:52.309Z,31.77
2022-11-29T14:19:27.627Z,29.23
2022-11-29T14:22:09.045Z,32.65
2022-11-29T14:24:50.307Z,33.22
2022-11-29T14:27:31.681Z,27.35
2022-11-29T14:30:32.192Z,37.70
2022-11-29T14:33:50.453Z,42.60
2022-11-29T14:36:57.663Z,33.67
2022-11-29T14:39:49.617Z,29.80
2022-11-29T14:42:41.027Z,29.65
2022-11-29T14:45:32.925Z,26.70
2022-11-29T14:48:14.149Z,28.13
2022-11-29T14:51:21.891Z,23.95
2022-11-29T14:54:23.807Z,25.00
2022-11-29T14:56:58.530Z,24.00
2022-11-29T14:59:50.465Z,22.33
2022-11-29T15:06:01.996Z,21.80
2022-11-29T15:09:15.716Z,21.67
2022-11-29T15:12:31.845Z,20.88
2022-11-29T15:15:40.405Z,22.88
2022-11-29T15:18:52.494Z,20.52
2022-11-29T15:22:15.579Z,21.45
2022-11-29T15:25:02.298Z,23.63
2022-11-29T15:27:50.401Z,24.50
2022-11-29T15:30:32.965Z,25.73
2022-11-29T15:33:13.223Z,24.90
2022-11-29T15:35:57.506Z,21.85
2022-11-29T15:38:33.692Z,28.00
2022-11-29T15:41:12.417Z,24.98
2022-11-29T15:44:10.112Z,31.75
2022-11-29T15:46:43.924Z,28.20
2022-11-29T15:49:33.763Z,25.10
2022-11-29T15:52:20.071Z,25.17
2022-11-29T15:55:03.425Z,18.80
2022-11-29T15:57:41.256Z,25.42
2022-11-29T16:00:28.786Z,23.65
2022-11-29T16:03:14.841Z,33.80
2022-11-29T16:05:59.703Z,23.05
2022-11-29T16:08:47.884Z,24.33
2022-11-29T16:11:28.921Z,26.58
2022-11-29T16:14:34.196Z,24.08
2022-11-29T16:17:23.463Z,24.67
2022-11-29T16:20:25.625Z,24.92
2022-11-29T16:23:40.661Z,25.75
2022-11-29T16:26:46.762Z,22.45
2022-11-29T16:29:41.596Z,24.35
2022-11-29T16:32:36.815Z,27.90
2022-11-29T16:35:38.461Z,29.98
2022-11-29T16:38:48.845Z,24.55
2022-11-29T16:41:48.694Z,23.75
2022-11-29T16:44:56.104Z,27.27
2022-11-29T16:48:00.026Z,21.85
2022-11-29T16:50:58.896Z,22.50
2022-11-29T16:53:57.756Z,25.02
2022-11-29T16:56:39.750Z,27.00
2022-11-29T16:59:27.594Z,24.52
2022-11-29T17:02:17.402Z,22.25
2022-11-29T17:04:56.570Z,24.00
2022-11-29T17:07:40.176Z,21.25
2022-11-29T17:10:20.369Z,25.50
2022-11-29T17:12:53.598Z,20.88
2022-11-29T17:15:26.000Z,22.58
2022-11-29T17:17:58.948Z,19.55
2022-11-29T17:20:31.855Z,16.92
2022-11-29T17:23:05.979Z,15.48
2022-11-29T17:25:38.407Z,17.80
2022-11-29T17:28:11.129Z,12.93
2022-11-29T17:30:43.532Z,15.45
2022-11-29T17:33:17.204Z,16.33
2022-11-29T17:35:50.203Z,11.77
2022-11-29T17:38:22.816Z,13.30
2022-11-29T17:40:55.430Z,12.40
2022-11-29T17:43:29.073Z,11.65
2022-11-29T17:46:12.924Z,9.68
2022-11-29T17:48:48.716Z,14.32
2022-11-29T17:51:50.548Z,13.00
2022-11-29T17:54:20.467Z,11.93
2022-11-29T17:56:53.664Z,11.00
2022-11-29T17:59:28.037Z,12.80
2022-11-29T18:02:00.666Z,14.88
2022-11-29T18:04:38.869Z,14.75
2022-11-29T18:07:11.786Z,15.40
2022-11-29T18:09:44.447Z,14.90
2022-11-29T18:12:17.236Z,15.07
2022-11-29T18:14:53.850Z,15.40
2022-11-29T18:17:26.649Z,13.95
2022-11-29T18:19:59.294Z,15.48
2022-11-29T18:22:31.956Z,14.27
2022-11-29T18:25:30.753Z,11.10
2022-11-29T18:27:57.225Z,15.50
2022-11-29T18:30:30.291Z,14.13
2022-11-29T18:33:02.834Z,13.45
2022-11-29T18:35:35.424Z,17.45
2022-11-29T18:38:16.423Z,14.63
2022-11-29T18:40:49.225Z,12.18
2022-11-29T18:43:21.781Z,12.20
2022-11-29T18:45:57.756Z,13.00
2022-11-29T18:48:32.648Z,19.33
2022-11-29T18:51:08.523Z,11.10
2022-11-29T18:53:41.376Z,9.60
2022-11-29T18:56:17.092Z,12.98
2022-11-29T18:58:58.199Z,10.80
2022-11-29T19:01:33.176Z,11.23
2022-11-29T19:04:05.405Z,12.40
2022-11-29T19:06:39.942Z,11.32
2022-11-29T19:09:17.692Z,13.68
2022-11-29T19:11:53.057Z,13.25
2022-11-29T19:14:25.360Z,11.32
2022-11-29T19:16:57.728Z,14.82
2022-11-29T19:19:34.234Z,14.80
2022-11-29T19:22:06.812Z,12.70
2022-11-29T19:24:39.197Z,14.23
2022-11-29T19:27:12.060Z,13.30
2022-11-29T19:29:44.363Z,13.68
2022-11-29T19:32:16.564Z,15.35
2022-11-29T19:34:49.463Z,15.07
2022-11-29T19:37:22.304Z,17.55
2022-11-29T19:39:55.120Z,21.40
2022-11-29T19:42:28.083Z,16.63
2022-11-29T19:45:19.482Z,15.13
2022-11-29T19:47:50.956Z,20.10
2022-11-29T19:50:21.594Z,19.55
2022-11-29T19:52:52.415Z,17.35
2022-11-29T19:55:23.095Z,23.33
2022-11-29T19:57:54.327Z,24.48
2022-11-29T20:00:24.882Z,23.73
2022-11-29T20:02:56.178Z,23.95
2022-11-29T20:05:28.153Z,19.50
2022-11-29T20:07:58.469Z,23.27
2022-11-29T20:10:29.210Z,18.88
2022-11-29T20:12:59.553Z,20.60
2022-11-29T20:15:30.281Z,21.00
2022-11-29T20:18:04.025Z,18.60
2022-11-29T20:20:35.250Z,17.50
2022-11-29T20:23:06.004Z,16.95
2022-11-29T20:25:37.323Z,17.67
2022-11-29T20:28:07.994Z,18.20
2022-11-29T20:30:38.561Z,20.33
2022-11-29T20:33:10.664Z,18.73
2022-11-29T20:35:41.777Z,17.33
2022-11-29T20:38:35.602Z,20.95
2022-11-29T20:41:22.341Z,19.60
2022-11-29T20:44:33.536Z,18.05
2022-11-29T20:48:12.120Z,20.83
2022-11-29T20:50:45.587Z,20.92
2022-11-29T20:53:30.930Z,17.77
2022-11-29T20:56:01.666Z,17.63
2022-11-29T20:58:32.443Z,23.40
2022-11-29T21:01:04.893Z,22.23
2022-11-29T21:03:35.877Z,15.00
2022-11-29T21:06:07.578Z,18.80
2022-11-29T21:08:38.717Z,17.50
2022-11-29T21:11:11.230Z,18.55
2022-11-29T21:13:42.650Z,23.75
2022-11-29T21:16:14.455Z,21.33
2022-11-29T21:18:45.452Z,19.95
2022-11-29T21:21:30.628Z,19.17
2022-11-29T21:24:04.851Z,19.45
2022-11-29T21:26:44.338Z,21.88
2022-11-29T21:29:22.137Z,25.58
2022-11-29T21:31:54.884Z,21.60
2022-11-29T21:34:25.104Z,20.92
2022-11-29T21:36:58.546Z,21.08
2022-11-29T21:39:35.702Z,23.27
2022-11-29T21:42:06.667Z,22.33
2022-11-29T21:44:37.256Z,25.45
2022-11-29T21:47:08.741Z,25.60
2022-11-29T21:49:39.081Z,23.92
2022-11-29T21:52:09.572Z,29.45
2022-11-29T21:54:41.023Z,25.75
2022-11-29T21:57:14.204Z,28.08
2022-11-29T21:59:47.770Z,27.88
2022-11-29T22:02:18.047Z,21.42
2022-11-29T22:04:49.383Z,26.60
2022-11-29T22:07:20.381Z,26.17
2022-11-29T22:09:53.756Z,26.90
2022-11-29T22:12:34.194Z,23.73
2022-11-29T22:15:09.279Z,22.88
2022-11-29T22:17:39.764Z,31.50
2022-11-29T22:20:10.161Z,28.33
2022-11-29T22:22:40.854Z,26.13
2022-11-29T22:25:13.598Z,21.73
2022-11-29T22:27:43.895Z,21.73
2022-11-29T22:30:14.683Z,21.17
2022-11-29T22:32:45.484Z,22.25
2022-11-29T22:35:15.918Z,18.15
2022-11-29T22:37:49.467Z,15.00
2022-11-29T22:40:20.580Z,17.38
2022-11-29T22:42:51.514Z,16.48
2022-11-29T22:45:24.796Z,13.98
2022-11-29T22:47:56.517Z,18.70
2022-11-29T22:50:27.734Z,15.93
2022-11-29T22:52:58.285Z,17.42
2022-11-29T22:55:28.828Z,12.18
2022-11-29T22:58:02.352Z,14.52
2022-11-29T23:00:33.394Z,16.85
2022-11-29T23:03:03.928Z,15.20
2022-11-29T23:05:34.652Z,19.33
2022-11-29T23:08:05.074Z,18.00
2022-11-29T23:10:37.589Z,19.08
2022-11-29T23:13:08.421Z,16.88
2022-11-29T23:15:39.015Z,28.35
2022-11-29T23:18:12.115Z,22.90
2022-11-29T23:20:42.671Z,26.30
2022-11-29T23:23:13.195Z,22.35
2022-11-29T23:25:51.142Z,18.55
2022-11-29T23:28:21.370Z,19.58
2022-11-29T23:30:52.612Z,19.88
2022-11-29T23:33:25.120Z,22.38
2022-11-29T23:36:04.105Z,21.25
2022-11-29T23:38:35.343Z,17.13
2022-11-29T23:41:07.465Z,18.73
2022-11-29T23:43:38.990Z,18.85
2022-11-29T23:46:12.932Z,16.02
2022-11-29T23:48:43.910Z,17.05
2022-11-29T23:51:15.278Z,12.65
2022-11-29T23:53:47.674Z,16.70
2022-11-29T23:56:18.950Z,12.55
2022-11-29T23:58:49.781Z,16.58
